sensor_id;sensor_type;location;lat;lon;timestamp;P1;durP1;ratioP1;P2;durP2;ratioP2
77748;SDS011;66938;52.084;5.228;2023-02-20T00:01:11;19.11;;;14.4;;
77748;SDS011;66938;52.084;5.228;2023-02-20T00:02:48;19.7;;;14.2;;
77748;SDS011;66938;52.084;5.228;2023-02-20T00:06:02;19.41;;;14.5;;
77748;SDS011;66938;52.084;5.228;2023-02-20T00:07:38;20.41;;;14.1;;
77748;SDS011;66938;52.084;5.228;2023-02-20T00:09:15;19.2;;;14.4;;
77748;SDS011;66938;52.084;5.228;2023-02-20T00:12:29;19.3;;;15.1;;
77748;SDS011;66938;52.084;5.228;2023-02-20T00:14:06;19.41;;;15.2;;
77748;SDS011;66938;52.084;5.228;2023-02-20T00:15:43;18.91;;;15.1;;
77748;SDS011;66938;52.084;5.228;2023-02-20T00:18:56;18.61;;;13.8;;
77748;SDS011;66938;52.084;5.228;2023-02-20T00:20:35;17.3;;;13.8;;
77748;SDS011;66938;52.084;5.228;2023-02-20T00:22:12;19.3;;;14.3;;
77748;SDS011;66938;52.084;5.228;2023-02-20T00:23:48;18.41;;;14.0;;
77748;SDS011;66938;52.084;5.228;2023-02-20T00:27:02;19.0;;;14.3;;
77748;SDS011;66938;52.084;5.228;2023-02-20T00:28:39;19.2;;;14.5;;
77748;SDS011;66938;52.084;5.228;2023-02-20T00:30:18;19.8;;;14.3;;
77748;SDS011;66938;52.084;5.228;2023-02-20T00:33:35;19.5;;;15.3;;
77748;SDS011;66938;52.084;5.228;2023-02-20T00:35:12;18.3;;;13.5;;
77748;SDS011;66938;52.084;5.228;2023-02-20T00:36:49;18.91;;;13.7;;
77748;SDS011;66938;52.084;5.228;2023-02-20T00:38:27;16.7;;;13.6;;
77748;SDS011;66938;52.084;5.228;2023-02-20T00:41:43;19.91;;;14.8;;
77748;SDS011;66938;52.084;5.228;2023-02-20T00:43:19;17.8;;;14.5;;
77748;SDS011;66938;52.084;5.228;2023-02-20T00:44:56;17.2;;;13.6;;
77748;SDS011;66938;52.084;5.228;2023-02-20T00:48:10;21.0;;;14.5;;
77748;SDS011;66938;52.084;5.228;2023-02-20T00:49:47;18.41;;;13.9;;
77748;SDS011;66938;52.084;5.228;2023-02-20T00:51:24;18.2;;;13.8;;
77748;SDS011;66938;52.084;5.228;2023-02-20T00:53:02;18.41;;;14.6;;
77748;SDS011;66938;52.084;5.228;2023-02-20T00:56:15;18.8;;;13.3;;
77748;SDS011;66938;52.084;5.228;2023-02-20T00:57:51;19.8;;;14.2;;
77748;SDS011;66938;52.084;5.228;2023-02-20T00:59:29;18.5;;;14.5;;
77748;SDS011;66938;52.084;5.228;2023-02-20T01:02:42;20.2;;;15.1;;
77748;SDS011;66938;52.084;5.228;2023-02-20T01:04:18;17.91;;;13.5;;
77748;SDS011;66938;52.084;5.228;2023-02-20T01:05:56;17.91;;;15.3;;
77748;SDS011;66938;52.084;5.228;2023-02-20T01:09:10;19.7;;;14.9;;
77748;SDS011;66938;52.084;5.228;2023-02-20T01:10:48;20.41;;;14.7;;
77748;SDS011;66938;52.084;5.228;2023-02-20T01:12:26;20.3;;;14.5;;
77748;SDS011;66938;52.084;5.228;2023-02-20T01:14:02;20.11;;;15.2;;
77748;SDS011;66938;52.084;5.228;2023-02-20T01:17:15;19.91;;;14.5;;
77748;SDS011;66938;52.084;5.228;2023-02-20T01:18:52;21.0;;;15.1;;
77748;SDS011;66938;52.084;5.228;2023-02-20T01:20:29;18.91;;;14.7;;
77748;SDS011;66938;52.084;5.228;2023-02-20T01:23:44;18.5;;;15.1;;
77748;SDS011;66938;52.084;5.228;2023-02-20T01:25:20;22.1;;;16.4;;
77748;SDS011;66938;52.084;5.228;2023-02-20T01:26:58;17.5;;;13.9;;
77748;SDS011;66938;52.084;5.228;2023-02-20T01:28:35;19.3;;;14.3;;
77748;SDS011;66938;52.084;5.228;2023-02-20T01:31:50;22.1;;;15.5;;
77748;SDS011;66938;52.084;5.228;2023-02-20T01:33:27;18.5;;;15.3;;
77748;SDS011;66938;52.084;5.228;2023-02-20T01:35:05;19.61;;;15.2;;
77748;SDS011;66938;52.084;5.228;2023-02-20T01:38:24;22.3;;;16.2;;
77748;SDS011;66938;52.084;5.228;2023-02-20T01:40:02;19.8;;;14.5;;
77748;SDS011;66938;52.084;5.228;2023-02-20T01:41:39;21.4;;;15.9;;
77748;SDS011;66938;52.084;5.228;2023-02-20T01:43:15;22.0;;;16.0;;
77748;SDS011;66938;52.084;5.228;2023-02-20T01:46:46;19.8;;;15.7;;
77748;SDS011;66938;52.084;5.228;2023-02-20T01:48:26;19.7;;;15.0;;
77748;SDS011;66938;52.084;5.228;2023-02-20T01:50:04;22.8;;;16.3;;
77748;SDS011;66938;52.084;5.228;2023-02-20T01:51:43;22.9;;;17.0;;
77748;SDS011;66938;52.084;5.228;2023-02-20T01:55:07;24.0;;;17.61;;
77748;SDS011;66938;52.084;5.228;2023-02-20T01:56:49;22.1;;;16.61;;
77748;SDS011;66938;52.084;5.228;2023-02-20T01:58:29;25.2;;;19.3;;
77748;SDS011;66938;52.084;5.228;2023-02-20T02:00:12;26.7;;;18.41;;
77748;SDS011;66938;52.084;5.228;2023-02-20T02:03:31;27.0;;;18.5;;
77748;SDS011;66938;52.084;5.228;2023-02-20T02:05:11;25.6;;;18.5;;
77748;SDS011;66938;52.084;5.228;2023-02-20T02:06:50;26.1;;;19.0;;
77748;SDS011;66938;52.084;5.228;2023-02-20T02:08:29;30.1;;;20.5;;
77748;SDS011;66938;52.084;5.228;2023-02-20T02:11:49;28.4;;;19.91;;
77748;SDS011;66938;52.084;5.228;2023-02-20T02:13:26;32.0;;;21.7;;
77748;SDS011;66938;52.084;5.228;2023-02-20T02:15:11;29.6;;;21.5;;
77748;SDS011;66938;52.084;5.228;2023-02-20T02:16:52;33.0;;;22.2;;
77748;SDS011;66938;52.084;5.228;2023-02-20T02:18:48;29.3;;;21.3;;
77748;SDS011;66938;52.084;5.228;2023-02-20T02:23:20;30.7;;;23.5;;
77748;SDS011;66938;52.084;5.228;2023-02-20T02:28:35;31.1;;;24.1;;
77748;SDS011;66938;52.084;5.228;2023-02-20T02:30:19;37.5;;;28.2;;
77748;SDS011;66938;52.084;5.228;2023-02-20T02:31:19;37.5;;;28.2;;
77748;SDS011;66938;52.084;5.228;2023-02-20T02:32:19;37.5;;;28.2;;
77748;SDS011;66938;52.084;5.228;2023-02-20T02:33:19;37.5;;;28.2;;
77748;SDS011;66938;52.084;5.228;2023-02-20T02:34:19;36.21;;;26.8;;
77748;SDS011;66938;52.084;5.228;2023-02-20T02:35:25;36.21;;;26.8;;
77748;SDS011;66938;52.084;5.228;2023-02-20T02:36:17;40.21;;;28.0;;
77748;SDS011;66938;52.084;5.228;2023-02-20T02:38:32;37.6;;;27.7;;
77748;SDS011;66938;52.084;5.228;2023-02-20T02:40:23;41.5;;;30.2;;
77748;SDS011;66938;52.084;5.228;2023-02-20T02:42:08;40.1;;;28.2;;
77748;SDS011;66938;52.084;5.228;2023-02-20T02:43:53;40.71;;;29.6;;
77748;SDS011;66938;52.084;5.228;2023-02-20T02:47:21;40.71;;;29.6;;
77748;SDS011;66938;52.084;5.228;2023-02-20T02:49:05;40.21;;;29.8;;
77748;SDS011;66938;52.084;5.228;2023-02-20T02:50:47;47.8;;;31.3;;
77748;SDS011;66938;52.084;5.228;2023-02-20T02:53:00;38.6;;;30.3;;
77748;SDS011;66938;52.084;5.228;2023-02-20T02:54:38;43.3;;;30.1;;
77748;SDS011;66938;52.084;5.228;2023-02-20T02:58:09;43.7;;;30.8;;
77748;SDS011;66938;52.084;5.228;2023-02-20T02:59:49;41.7;;;31.3;;
77748;SDS011;66938;52.084;5.228;2023-02-20T03:01:30;44.4;;;32.3;;
77748;SDS011;66938;52.084;5.228;2023-02-20T03:03:14;43.5;;;31.5;;
77748;SDS011;66938;52.084;5.228;2023-02-20T03:04:56;45.1;;;30.9;;
77748;SDS011;66938;52.084;5.228;2023-02-20T03:08:22;43.7;;;33.1;;
77748;SDS011;66938;52.084;5.228;2023-02-20T03:10:20;46.3;;;33.5;;
77748;SDS011;66938;52.084;5.228;2023-02-20T03:11:59;46.0;;;32.21;;
77748;SDS011;66938;52.084;5.228;2023-02-20T03:15:59;44.3;;;33.0;;
77748;SDS011;66938;52.084;5.228;2023-02-20T03:17:38;44.1;;;32.4;;
77748;SDS011;66938;52.084;5.228;2023-02-20T03:21:08;44.8;;;32.5;;
77748;SDS011;66938;52.084;5.228;2023-02-20T03:22:52;42.5;;;31.5;;
77748;SDS011;66938;52.084;5.228;2023-02-20T03:24:55;42.5;;;31.5;;
77748;SDS011;66938;52.084;5.228;2023-02-20T03:26:36;44.6;;;32.8;;
77748;SDS011;66938;52.084;5.228;2023-02-20T03:28:16;43.6;;;32.0;;
77748;SDS011;66938;52.084;5.228;2023-02-20T03:29:58;43.3;;;31.5;;
77748;SDS011;66938;52.084;5.228;2023-02-20T03:44:25;41.4;;;29.9;;
77748;SDS011;66938;52.084;5.228;2023-02-20T03:46:05;42.8;;;29.3;;
77748;SDS011;66938;52.084;5.228;2023-02-20T03:47:46;43.4;;;30.8;;
77748;SDS011;66938;52.084;5.228;2023-02-20T03:49:28;42.1;;;30.1;;
77748;SDS011;66938;52.084;5.228;2023-02-20T03:52:53;44.4;;;30.5;;
77748;SDS011;66938;52.084;5.228;2023-02-20T03:56:11;46.5;;;32.0;;
77748;SDS011;66938;52.084;5.228;2023-02-20T03:57:56;40.5;;;29.7;;
77748;SDS011;66938;52.084;5.228;2023-02-20T03:59:37;43.5;;;31.0;;
77748;SDS011;66938;52.084;5.228;2023-02-20T04:01:17;42.6;;;30.1;;
77748;SDS011;66938;52.084;5.228;2023-02-20T04:04:43;44.2;;;31.4;;
77748;SDS011;66938;52.084;5.228;2023-02-20T04:06:25;45.9;;;32.4;;
77748;SDS011;66938;52.084;5.228;2023-02-20T04:08:07;46.8;;;32.3;;
77748;SDS011;66938;52.084;5.228;2023-02-20T04:09:48;45.0;;;33.0;;
77748;SDS011;66938;52.084;5.228;2023-02-20T04:13:09;43.6;;;31.5;;
77748;SDS011;66938;52.084;5.228;2023-02-20T04:14:49;45.7;;;32.3;;
77748;SDS011;66938;52.084;5.228;2023-02-20T04:16:29;44.7;;;32.71;;
77748;SDS011;66938;52.084;5.228;2023-02-20T04:18:13;44.2;;;32.71;;
77748;SDS011;66938;52.084;5.228;2023-02-20T04:21:31;41.6;;;32.0;;
77748;SDS011;66938;52.084;5.228;2023-02-20T04:23:14;45.8;;;33.4;;
77748;SDS011;66938;52.084;5.228;2023-02-20T04:24:55;44.2;;;34.1;;
77748;SDS011;66938;52.084;5.228;2023-02-20T04:26:36;45.2;;;34.21;;
77748;SDS011;66938;52.084;5.228;2023-02-20T04:29:51;46.0;;;35.0;;
77748;SDS011;66938;52.084;5.228;2023-02-20T04:31:28;43.7;;;33.5;;
77748;SDS011;66938;52.084;5.228;2023-02-20T04:33:06;43.1;;;33.6;;
77748;SDS011;66938;52.084;5.228;2023-02-20T04:34:45;50.3;;;37.31;;
77748;SDS011;66938;52.084;5.228;2023-02-20T04:38:00;43.6;;;33.4;;
77748;SDS011;66938;52.084;5.228;2023-02-20T04:39:36;45.4;;;33.5;;
77748;SDS011;66938;52.084;5.228;2023-02-20T04:41:14;49.6;;;36.6;;
77748;SDS011;66938;52.084;5.228;2023-02-20T04:44:32;50.7;;;35.9;;
77748;SDS011;66938;52.084;5.228;2023-02-20T04:46:09;47.8;;;36.0;;
77748;SDS011;66938;52.084;5.228;2023-02-20T04:47:46;45.9;;;34.6;;
77748;SDS011;66938;52.084;5.228;2023-02-20T04:49:23;46.1;;;34.6;;
77748;SDS011;66938;52.084;5.228;2023-02-20T04:52:37;50.8;;;36.4;;
77748;SDS011;66938;52.084;5.228;2023-02-20T04:54:14;46.1;;;33.9;;
77748;SDS011;66938;52.084;5.228;2023-02-20T04:55:51;51.2;;;35.9;;
77748;SDS011;66938;52.084;5.228;2023-02-20T04:59:05;47.6;;;36.4;;
77748;SDS011;66938;52.084;5.228;2023-02-20T05:00:43;48.9;;;35.4;;
77748;SDS011;66938;52.084;5.228;2023-02-20T05:02:20;48.6;;;35.1;;
77748;SDS011;66938;52.084;5.228;2023-02-20T05:05:34;46.1;;;34.0;;
77748;SDS011;66938;52.084;5.228;2023-02-20T05:07:11;45.0;;;32.5;;
77748;SDS011;66938;52.084;5.228;2023-02-20T05:08:47;43.9;;;33.9;;
77748;SDS011;66938;52.084;5.228;2023-02-20T05:10:25;44.3;;;33.3;;
77748;SDS011;66938;52.084;5.228;2023-02-20T05:13:40;45.0;;;34.21;;
77748;SDS011;66938;52.084;5.228;2023-02-20T05:15:17;44.0;;;32.3;;
77748;SDS011;66938;52.084;5.228;2023-02-20T05:16:55;44.7;;;31.7;;
77748;SDS011;66938;52.084;5.228;2023-02-20T05:20:09;48.2;;;31.8;;
77748;SDS011;66938;52.084;5.228;2023-02-20T05:22:23;43.9;;;30.1;;
77748;SDS011;66938;52.084;5.228;2023-02-20T05:24:00;41.9;;;31.0;;
77748;SDS011;66938;52.084;5.228;2023-02-20T05:25:36;41.5;;;30.3;;
77748;SDS011;66938;52.084;5.228;2023-02-20T05:27:14;42.5;;;31.0;;
77748;SDS011;66938;52.084;5.228;2023-02-20T05:30:30;41.3;;;30.1;;
77748;SDS011;66938;52.084;5.228;2023-02-20T05:32:07;40.5;;;29.6;;
77748;SDS011;66938;52.084;5.228;2023-02-20T05:33:43;39.0;;;28.5;;
77748;SDS011;66938;52.084;5.228;2023-02-20T05:38:34;39.5;;;25.6;;
77748;SDS011;66938;52.084;5.228;2023-02-20T05:40:11;36.9;;;26.0;;
77748;SDS011;66938;52.084;5.228;2023-02-20T05:41:48;36.21;;;24.6;;
77748;SDS011;66938;52.084;5.228;2023-02-20T05:45:03;35.71;;;23.5;;
77748;SDS011;66938;52.084;5.228;2023-02-20T05:46:40;33.5;;;23.0;;
77748;SDS011;66938;52.084;5.228;2023-02-20T05:48:18;32.21;;;22.2;;
77748;SDS011;66938;52.084;5.228;2023-02-20T05:51:31;38.0;;;21.6;;
77748;SDS011;66938;52.084;5.228;2023-02-20T05:53:08;37.0;;;21.5;;
77748;SDS011;66938;52.084;5.228;2023-02-20T05:54:44;30.4;;;19.3;;
77748;SDS011;66938;52.084;5.228;2023-02-20T05:56:22;31.7;;;19.2;;
77748;SDS011;66938;52.084;5.228;2023-02-20T05:59:36;32.9;;;19.5;;
77748;SDS011;66938;52.084;5.228;2023-02-20T06:01:16;31.9;;;19.3;;
77748;SDS011;66938;52.084;5.228;2023-02-20T06:02:53;32.4;;;18.5;;
77748;SDS011;66938;52.084;5.228;2023-02-20T06:06:06;32.21;;;18.61;;
77748;SDS011;66938;52.084;5.228;2023-02-20T06:07:42;30.6;;;17.61;;
77748;SDS011;66938;52.084;5.228;2023-02-20T06:09:20;30.9;;;18.11;;
77748;SDS011;66938;52.084;5.228;2023-02-20T06:10:56;30.9;;;18.11;;
77748;SDS011;66938;52.084;5.228;2023-02-20T06:14:10;32.21;;;18.0;;
77748;SDS011;66938;52.084;5.228;2023-02-20T06:15:47;31.5;;;17.5;;
77748;SDS011;66938;52.084;5.228;2023-02-20T06:17:24;31.1;;;17.3;;
77748;SDS011;66938;52.084;5.228;2023-02-20T06:20:37;31.2;;;17.41;;
77748;SDS011;66938;52.084;5.228;2023-02-20T06:22:15;28.5;;;16.7;;
77748;SDS011;66938;52.084;5.228;2023-02-20T06:23:51;30.5;;;16.0;;
77748;SDS011;66938;52.084;5.228;2023-02-20T06:27:07;31.5;;;15.9;;
77748;SDS011;66938;52.084;5.228;2023-02-20T06:28:43;28.8;;;16.7;;
77748;SDS011;66938;52.084;5.228;2023-02-20T06:30:20;27.2;;;16.8;;
77748;SDS011;66938;52.084;5.228;2023-02-20T06:31:57;29.2;;;16.11;;
77748;SDS011;66938;52.084;5.228;2023-02-20T06:35:12;27.4;;;15.3;;
77748;SDS011;66938;52.084;5.228;2023-02-20T06:36:49;30.9;;;16.4;;
77748;SDS011;66938;52.084;5.228;2023-02-20T06:38:26;30.8;;;16.3;;
77748;SDS011;66938;52.084;5.228;2023-02-20T06:41:42;28.5;;;16.2;;
77748;SDS011;66938;52.084;5.228;2023-02-20T06:43:19;30.9;;;17.2;;
77748;SDS011;66938;52.084;5.228;2023-02-20T06:44:56;30.6;;;16.3;;
77748;SDS011;66938;52.084;5.228;2023-02-20T06:46:33;28.8;;;16.0;;
77748;SDS011;66938;52.084;5.228;2023-02-20T06:49:48;31.4;;;16.11;;
77748;SDS011;66938;52.084;5.228;2023-02-20T06:51:25;27.4;;;15.5;;
77748;SDS011;66938;52.084;5.228;2023-02-20T06:53:03;28.8;;;15.8;;
77748;SDS011;66938;52.084;5.228;2023-02-20T06:56:20;26.2;;;15.5;;
77748;SDS011;66938;52.084;5.228;2023-02-20T06:57:59;27.4;;;15.5;;
77748;SDS011;66938;52.084;5.228;2023-02-20T06:59:40;30.0;;;14.9;;
77748;SDS011;66938;52.084;5.228;2023-02-20T07:01:21;27.2;;;14.5;;
77748;SDS011;66938;52.084;5.228;2023-02-20T07:04:36;26.9;;;14.2;;
77748;SDS011;66938;52.084;5.228;2023-02-20T07:06:13;27.3;;;13.5;;
77748;SDS011;66938;52.084;5.228;2023-02-20T07:07:51;27.6;;;13.0;;
77748;SDS011;66938;52.084;5.228;2023-02-20T07:11:05;32.6;;;13.5;;
77748;SDS011;66938;52.084;5.228;2023-02-20T07:12:42;25.0;;;12.9;;
77748;SDS011;66938;52.084;5.228;2023-02-20T07:14:18;26.5;;;13.1;;
77748;SDS011;66938;52.084;5.228;2023-02-20T07:15:56;29.1;;;13.3;;
77748;SDS011;66938;52.084;5.228;2023-02-20T07:19:10;27.8;;;13.2;;
77748;SDS011;66938;52.084;5.228;2023-02-20T07:20:48;24.6;;;12.2;;
77748;SDS011;66938;52.084;5.228;2023-02-20T07:22:27;26.8;;;12.9;;
77748;SDS011;66938;52.084;5.228;2023-02-20T07:25:42;28.1;;;13.8;;
77748;SDS011;66938;52.084;5.228;2023-02-20T07:27:19;27.9;;;14.0;;
77748;SDS011;66938;52.084;5.228;2023-02-20T07:28:57;26.6;;;13.8;;
77748;SDS011;66938;52.084;5.228;2023-02-20T07:30:34;26.0;;;12.8;;
77748;SDS011;66938;52.084;5.228;2023-02-20T07:33:49;30.5;;;12.7;;
77748;SDS011;66938;52.084;5.228;2023-02-20T07:35:26;26.5;;;13.0;;
77748;SDS011;66938;52.084;5.228;2023-02-20T07:37:02;26.4;;;13.4;;
77748;SDS011;66938;52.084;5.228;2023-02-20T07:40:17;30.3;;;14.1;;
77748;SDS011;66938;52.084;5.228;2023-02-20T07:41:55;29.0;;;12.8;;
77748;SDS011;66938;52.084;5.228;2023-02-20T07:43:32;28.8;;;13.4;;
77748;SDS011;66938;52.084;5.228;2023-02-20T07:45:08;26.7;;;13.7;;
77748;SDS011;66938;52.084;5.228;2023-02-20T07:48:22;26.5;;;14.0;;
77748;SDS011;66938;52.084;5.228;2023-02-20T07:49:59;24.4;;;13.2;;
77748;SDS011;66938;52.084;5.228;2023-02-20T07:51:35;26.1;;;13.2;;
77748;SDS011;66938;52.084;5.228;2023-02-20T07:54:51;26.9;;;12.8;;
77748;SDS011;66938;52.084;5.228;2023-02-20T07:56:27;28.8;;;13.0;;
77748;SDS011;66938;52.084;5.228;2023-02-20T07:58:04;24.8;;;12.3;;
77748;SDS011;66938;52.084;5.228;2023-02-20T08:01:18;25.2;;;13.1;;
77748;SDS011;66938;52.084;5.228;2023-02-20T08:02:54;27.5;;;12.9;;
77748;SDS011;66938;52.084;5.228;2023-02-20T08:04:31;28.6;;;13.2;;
77748;SDS011;66938;52.084;5.228;2023-02-20T08:06:07;28.2;;;11.9;;
77748;SDS011;66938;52.084;5.228;2023-02-20T08:09:20;27.3;;;12.9;;
77748;SDS011;66938;52.084;5.228;2023-02-20T08:10:56;24.4;;;12.5;;
77748;SDS011;66938;52.084;5.228;2023-02-20T08:12:33;26.3;;;13.4;;
77748;SDS011;66938;52.084;5.228;2023-02-20T08:15:49;28.7;;;13.6;;
77748;SDS011;66938;52.084;5.228;2023-02-20T08:17:25;25.9;;;12.8;;
77748;SDS011;66938;52.084;5.228;2023-02-20T08:19:01;26.7;;;13.1;;
77748;SDS011;66938;52.084;5.228;2023-02-20T08:20:38;25.7;;;12.8;;
77748;SDS011;66938;52.084;5.228;2023-02-20T08:23:51;27.2;;;12.8;;
77748;SDS011;66938;52.084;5.228;2023-02-20T08:25:27;27.2;;;12.8;;
77748;SDS011;66938;52.084;5.228;2023-02-20T08:27:04;24.8;;;12.7;;
77748;SDS011;66938;52.084;5.228;2023-02-20T08:30:18;25.9;;;12.9;;
77748;SDS011;66938;52.084;5.228;2023-02-20T08:31:58;28.8;;;13.6;;
77748;SDS011;66938;52.084;5.228;2023-02-20T08:33:34;26.8;;;12.9;;
77748;SDS011;66938;52.084;5.228;2023-02-20T08:36:47;27.0;;;13.7;;
77748;SDS011;66938;52.084;5.228;2023-02-20T08:38:25;29.2;;;13.7;;
77748;SDS011;66938;52.084;5.228;2023-02-20T08:40:08;23.8;;;12.9;;
77748;SDS011;66938;52.084;5.228;2023-02-20T08:41:45;27.0;;;14.0;;
77748;SDS011;66938;52.084;5.228;2023-02-20T08:44:59;25.1;;;14.1;;
77748;SDS011;66938;52.084;5.228;2023-02-20T08:46:35;27.5;;;15.3;;
77748;SDS011;66938;52.084;5.228;2023-02-20T08:48:12;26.3;;;13.8;;
77748;SDS011;66938;52.084;5.228;2023-02-20T08:51:25;29.4;;;15.1;;
77748;SDS011;66938;52.084;5.228;2023-02-20T08:53:01;25.8;;;14.7;;
77748;SDS011;66938;52.084;5.228;2023-02-20T08:54:37;25.9;;;14.3;;
77748;SDS011;66938;52.084;5.228;2023-02-20T08:56:17;30.2;;;15.0;;
77748;SDS011;66938;52.084;5.228;2023-02-20T08:59:31;29.4;;;16.0;;
77748;SDS011;66938;52.084;5.228;2023-02-20T09:01:07;27.0;;;14.9;;
77748;SDS011;66938;52.084;5.228;2023-02-20T09:02:45;30.2;;;17.7;;
77748;SDS011;66938;52.084;5.228;2023-02-20T09:05:59;30.4;;;17.41;;
77748;SDS011;66938;52.084;5.228;2023-02-20T09:07:35;29.4;;;16.5;;
77748;SDS011;66938;52.084;5.228;2023-02-20T09:09:12;29.9;;;17.5;;
77748;SDS011;66938;52.084;5.228;2023-02-20T09:12:24;30.8;;;17.91;;
77748;SDS011;66938;52.084;5.228;2023-02-20T09:14:00;31.2;;;17.8;;
77748;SDS011;66938;52.084;5.228;2023-02-20T09:15:38;30.3;;;18.0;;
77748;SDS011;66938;52.084;5.228;2023-02-20T09:17:15;28.5;;;17.61;;
77748;SDS011;66938;52.084;5.228;2023-02-20T09:20:31;30.3;;;18.7;;
77748;SDS011;66938;52.084;5.228;2023-02-20T09:22:07;30.3;;;19.2;;
77748;SDS011;66938;52.084;5.228;2023-02-20T09:23:44;25.9;;;18.0;;
77748;SDS011;66938;52.084;5.228;2023-02-20T09:26:57;31.8;;;18.61;;
77748;SDS011;66938;52.084;5.228;2023-02-20T09:28:33;31.7;;;20.41;;
77748;SDS011;66938;52.084;5.228;2023-02-20T09:30:13;33.6;;;20.6;;
77748;SDS011;66938;52.084;5.228;2023-02-20T09:31:52;31.1;;;19.7;;
77748;SDS011;66938;52.084;5.228;2023-02-20T09:35:05;28.7;;;20.41;;
77748;SDS011;66938;52.084;5.228;2023-02-20T09:36:41;29.4;;;21.0;;
77748;SDS011;66938;52.084;5.228;2023-02-20T09:38:17;33.6;;;21.9;;
77748;SDS011;66938;52.084;5.228;2023-02-20T09:41:34;29.4;;;20.41;;
77748;SDS011;66938;52.084;5.228;2023-02-20T09:43:22;29.7;;;20.7;;
77748;SDS011;66938;52.084;5.228;2023-02-20T09:45:17;29.9;;;21.2;;
77748;SDS011;66938;52.084;5.228;2023-02-20T09:46:58;31.6;;;20.8;;
77748;SDS011;66938;52.084;5.228;2023-02-20T09:48:46;28.4;;;20.0;;
77748;SDS011;66938;52.084;5.228;2023-02-20T09:50:44;31.6;;;20.5;;
77748;SDS011;66938;52.084;5.228;2023-02-20T09:54:06;30.7;;;19.91;;
77748;SDS011;66938;52.084;5.228;2023-02-20T09:55:46;23.2;;;17.2;;
77748;SDS011;66938;52.084;5.228;2023-02-20T09:57:25;25.8;;;17.7;;
77748;SDS011;66938;52.084;5.228;2023-02-20T09:59:06;30.1;;;18.61;;
77748;SDS011;66938;52.084;5.228;2023-02-20T10:02:27;24.9;;;17.61;;
77748;SDS011;66938;52.084;5.228;2023-02-20T10:04:06;25.3;;;17.7;;
77748;SDS011;66938;52.084;5.228;2023-02-20T10:05:49;25.5;;;17.8;;
77748;SDS011;66938;52.084;5.228;2023-02-20T10:07:26;27.1;;;16.7;;
77748;SDS011;66938;52.084;5.228;2023-02-20T10:10:48;23.9;;;16.8;;
77748;SDS011;66938;52.084;5.228;2023-02-20T10:12:27;26.5;;;16.5;;
77748;SDS011;66938;52.084;5.228;2023-02-20T10:14:23;25.8;;;16.3;;
77748;SDS011;66938;52.084;5.228;2023-02-20T10:16:13;24.9;;;16.7;;
77748;SDS011;66938;52.084;5.228;2023-02-20T10:18:01;25.1;;;15.6;;
77748;SDS011;66938;52.084;5.228;2023-02-20T10:21:43;23.4;;;15.0;;
77748;SDS011;66938;52.084;5.228;2023-02-20T10:23:31;22.9;;;14.7;;
77748;SDS011;66938;52.084;5.228;2023-02-20T10:25:19;21.9;;;13.6;;
77748;SDS011;66938;52.084;5.228;2023-02-20T10:27:03;21.5;;;13.9;;
77748;SDS011;66938;52.084;5.228;2023-02-20T10:28:58;22.2;;;13.0;;
77748;SDS011;66938;52.084;5.228;2023-02-20T10:30:49;21.6;;;13.4;;
77748;SDS011;66938;52.084;5.228;2023-02-20T10:32:35;18.5;;;13.4;;
77748;SDS011;66938;52.084;5.228;2023-02-20T10:36:06;18.2;;;13.0;;
77748;SDS011;66938;52.084;5.228;2023-02-20T10:37:49;19.8;;;12.4;;
77748;SDS011;66938;52.084;5.228;2023-02-20T10:39:30;20.8;;;12.7;;
77748;SDS011;66938;52.084;5.228;2023-02-20T10:41:12;21.0;;;13.5;;
77748;SDS011;66938;52.084;5.228;2023-02-20T10:42:57;18.61;;;12.3;;
77748;SDS011;66938;52.084;5.228;2023-02-20T10:46:26;18.3;;;12.9;;
77748;SDS011;66938;52.084;5.228;2023-02-20T10:48:08;17.11;;;12.8;;
77748;SDS011;66938;52.084;5.228;2023-02-20T10:49:48;18.41;;;12.8;;
77748;SDS011;66938;52.084;5.228;2023-02-20T10:51:33;20.6;;;13.4;;
77748;SDS011;66938;52.084;5.228;2023-02-20T10:55:03;17.11;;;13.4;;
77748;SDS011;66938;52.084;5.228;2023-02-20T10:56:47;19.11;;;14.2;;
77748;SDS011;66938;52.084;5.228;2023-02-20T10:58:35;22.1;;;14.2;;
77748;SDS011;66938;52.084;5.228;2023-02-20T11:00:16;22.2;;;14.6;;
77748;SDS011;66938;52.084;5.228;2023-02-20T11:01:57;17.2;;;13.1;;
77748;SDS011;66938;52.084;5.228;2023-02-20T11:05:23;22.1;;;14.6;;
77748;SDS011;66938;52.084;5.228;2023-02-20T11:07:06;20.9;;;15.5;;
77748;SDS011;66938;52.084;5.228;2023-02-20T11:08:47;18.2;;;14.5;;
77748;SDS011;66938;52.084;5.228;2023-02-20T11:10:23;20.0;;;14.3;;
77748;SDS011;66938;52.084;5.228;2023-02-20T11:13:37;18.3;;;14.6;;
77748;SDS011;66938;52.084;5.228;2023-02-20T11:15:15;18.3;;;14.6;;
77748;SDS011;66938;52.084;5.228;2023-02-20T11:16:56;20.6;;;15.4;;
77748;SDS011;66938;52.084;5.228;2023-02-20T11:18:35;19.61;;;14.0;;
77748;SDS011;66938;52.084;5.228;2023-02-20T11:22:37;18.7;;;13.8;;
77748;SDS011;66938;52.084;5.228;2023-02-20T11:24:20;19.2;;;14.7;;
77748;SDS011;66938;52.084;5.228;2023-02-20T11:26:39;17.3;;;14.8;;
77748;SDS011;66938;52.084;5.228;2023-02-20T11:28:16;18.0;;;14.8;;
77748;SDS011;66938;52.084;5.228;2023-02-20T11:29:59;19.0;;;15.1;;
77748;SDS011;66938;52.084;5.228;2023-02-20T11:31:39;19.5;;;15.4;;
77748;SDS011;66938;52.084;5.228;2023-02-20T11:33:17;17.5;;;14.4;;
77748;SDS011;66938;52.084;5.228;2023-02-20T11:37:09;19.3;;;14.0;;
77748;SDS011;66938;52.084;5.228;2023-02-20T11:38:49;18.11;;;15.2;;
77748;SDS011;66938;52.084;5.228;2023-02-20T11:40:32;20.3;;;15.3;;
77748;SDS011;66938;52.084;5.228;2023-02-20T11:42:10;20.11;;;15.3;;
77748;SDS011;66938;52.084;5.228;2023-02-20T11:44:03;20.7;;;14.5;;
77748;SDS011;66938;52.084;5.228;2023-02-20T11:46:07;18.41;;;13.7;;
77748;SDS011;66938;52.084;5.228;2023-02-20T11:47:52;18.2;;;14.2;;
77748;SDS011;66938;52.084;5.228;2023-02-20T11:51:29;22.3;;;14.6;;
77748;SDS011;66938;52.084;5.228;2023-02-20T11:53:17;19.2;;;15.4;;
77748;SDS011;66938;52.084;5.228;2023-02-20T11:55:07;18.2;;;14.8;;
77748;SDS011;66938;52.084;5.228;2023-02-20T11:56:53;18.8;;;14.1;;
77748;SDS011;66938;52.084;5.228;2023-02-20T11:58:34;18.61;;;13.9;;
77748;SDS011;66938;52.084;5.228;2023-02-20T12:01:55;17.3;;;13.1;;
77748;SDS011;66938;52.084;5.228;2023-02-20T12:03:53;16.3;;;13.2;;
77748;SDS011;66938;52.084;5.228;2023-02-20T12:05:38;15.9;;;12.7;;
77748;SDS011;66938;52.084;5.228;2023-02-20T12:07:24;15.8;;;12.8;;
77748;SDS011;66938;52.084;5.228;2023-02-20T12:09:05;15.8;;;12.8;;
77748;SDS011;66938;52.084;5.228;2023-02-20T12:10:47;15.6;;;12.8;;
77748;SDS011;66938;52.084;5.228;2023-02-20T12:14:09;17.5;;;14.0;;
77748;SDS011;66938;52.084;5.228;2023-02-20T12:15:50;17.3;;;14.2;;
77748;SDS011;66938;52.084;5.228;2023-02-20T12:17:39;18.41;;;14.0;;
77748;SDS011;66938;52.084;5.228;2023-02-20T12:19:32;16.61;;;13.4;;
77748;SDS011;66938;52.084;5.228;2023-02-20T12:21:22;19.61;;;14.8;;
77748;SDS011;66938;52.084;5.228;2023-02-20T12:25:14;17.3;;;14.1;;
77748;SDS011;66938;52.084;5.228;2023-02-20T12:27:00;18.8;;;13.6;;
77748;SDS011;66938;52.084;5.228;2023-02-20T12:28:40;20.7;;;13.2;;
77748;SDS011;66938;52.084;5.228;2023-02-20T12:30:31;18.2;;;13.3;;
77748;SDS011;66938;52.084;5.228;2023-02-20T12:32:28;17.7;;;13.4;;
77748;SDS011;66938;52.084;5.228;2023-02-20T12:34:18;19.2;;;13.5;;
77748;SDS011;66938;52.084;5.228;2023-02-20T12:36:24;18.91;;;14.4;;
77748;SDS011;66938;52.084;5.228;2023-02-20T12:38:14;22.6;;;14.5;;
77748;SDS011;66938;52.084;5.228;2023-02-20T12:40:27;21.8;;;14.9;;
77748;SDS011;66938;52.084;5.228;2023-02-20T12:42:20;20.2;;;14.2;;
77748;SDS011;66938;52.084;5.228;2023-02-20T12:46:05;19.5;;;13.7;;
77748;SDS011;66938;52.084;5.228;2023-02-20T12:47:51;20.0;;;14.4;;
77748;SDS011;66938;52.084;5.228;2023-02-20T12:50:57;22.2;;;15.9;;